Time;durP1;ratioP1;P1;durP2;ratioP2;P2;SDS_P1;SDS_P2;PMS_P1;PMS_P2;Temp;Humidity;BMP_temperature;BMP_pressure;BME280_temperature;BME280_humidity;BME280_pressure;Samples;Min_cycle;Max_cycle;Signal;HPM_P1;HPM_P2
2022/11/30 00:00:19;;;;;;;117.90;43.90;;;4.70;99.90;;;;;;6179565;23;20393;-46
2022/11/30 00:02:45;;;;;;;120.43;42.83;;;4.70;99.90;;;;;;6184187;23;20148;-46
2022/11/30 00:05:12;;;;;;;114.00;44.33;;;4.70;99.90;;;;;;6179419;23;20386;-46
2022/11/30 00:07:38;;;;;;;114.67;43.13;;;4.70;99.90;;;;;;6183341;23;20390;-45
2022/11/30 00:10:05;;;;;;;125.03;44.70;;;4.70;99.90;;;;;;6180622;23;20379;-47
2022/11/30 00:12:31;;;;;;;123.17;44.40;;;4.70;99.90;;;;;;6183628;23;20390;-46
2022/11/30 00:14:57;;;;;;;110.60;41.03;;;4.70;99.90;;;;;;6180462;23;20379;-46
2022/11/30 00:17:22;;;;;;;126.90;45.03;;;4.70;99.90;;;;;;6183271;23;20602;-46
2022/11/30 00:19:48;;;;;;;101.13;41.57;;;4.70;99.90;;;;;;6180950;23;20152;-47
2022/11/30 00:22:13;;;;;;;113.33;44.50;;;4.70;99.90;;;;;;6183635;23;20490;-46
2022/11/30 00:24:39;;;;;;;109.90;43.17;;;4.70;99.90;;;;;;6180239;23;20147;-46
2022/11/30 00:27:04;;;;;;;112.60;42.57;;;4.80;99.90;;;;;;6183866;23;20179;-46
2022/11/30 00:29:30;;;;;;;115.20;42.67;;;4.70;99.90;;;;;;6180831;23;20143;-46
2022/11/30 00:31:56;;;;;;;107.30;41.10;;;4.70;99.90;;;;;;6183485;23;20241;-46
2022/11/30 00:34:21;;;;;;;115.53;42.53;;;4.70;99.90;;;;;;6179758;23;20534;-46
2022/11/30 00:36:47;;;;;;;113.33;43.43;;;4.70;99.90;;;;;;6183465;23;20171;-47
2022/11/30 00:39:12;;;;;;;114.63;43.57;;;4.70;99.90;;;;;;6183132;23;20202;-46
2022/11/30 00:41:38;;;;;;;101.60;40.90;;;4.70;99.90;;;;;;6183386;23;20147;-46
2022/11/30 00:44:04;;;;;;;107.80;41.40;;;4.70;99.90;;;;;;6183671;23;20225;-47
2022/11/30 00:46:29;;;;;;;118.43;40.53;;;4.70;99.90;;;;;;6183332;23;20175;-46
2022/11/30 00:48:55;;;;;;;117.53;42.07;;;4.70;99.90;;;;;;6183636;23;20146;-46
2022/11/30 00:51:20;;;;;;;108.13;42.67;;;4.70;99.90;;;;;;6176478;23;20151;-46
2022/11/30 00:53:46;;;;;;;104.93;40.80;;;4.70;99.90;;;;;;6183640;23;20171;-47
2022/11/30 00:56:12;;;;;;;112.87;40.40;;;4.70;99.90;;;;;;6183410;23;20159;-47
2022/11/30 00:58:38;;;;;;;105.10;40.67;;;4.70;99.90;;;;;;6183386;23;20193;-47
2022/11/30 01:01:05;;;;;;;120.17;44.30;;;4.70;99.90;;;;;;6182994;23;20139;-46
2022/11/30 01:03:30;;;;;;;110.13;40.63;;;4.70;99.90;;;;;;6183102;23;20398;-46
2022/11/30 01:06:02;;;;;;;119.23;41.83;;;4.70;99.90;;;;;;6183356;23;20410;-46
2022/11/30 01:08:27;;;;;;;106.47;41.23;;;4.80;99.90;;;;;;6183718;23;20166;-46
2022/11/30 01:10:56;;;;;;;116.40;42.93;;;4.70;99.90;;;;;;6176990;23;20367;-47
2022/11/30 01:13:22;;;;;;;111.30;42.00;;;4.60;99.90;;;;;;6156986;23;20155;-46
2022/11/30 01:15:48;;;;;;;109.90;41.50;;;4.60;99.90;;;;;;6183333;23;20386;-48
2022/11/30 01:18:13;;;;;;;108.67;41.63;;;4.60;99.90;;;;;;6183848;23;20439;-47
2022/11/30 01:20:41;;;;;;;111.03;40.73;;;4.80;99.90;;;;;;6183295;23;20226;-46
2022/11/30 01:23:07;;;;;;;110.03;41.33;;;4.70;99.90;;;;;;6183480;23;20146;-46
2022/11/30 01:25:32;;;;;;;110.63;41.57;;;4.70;99.90;;;;;;6182929;23;20410;-47
2022/11/30 01:27:58;;;;;;;110.47;41.70;;;4.70;99.90;;;;;;6183555;23;20178;-46
2022/11/30 01:30:24;;;;;;;104.77;39.10;;;4.70;99.90;;;;;;6182124;23;20174;-47
2022/11/30 01:32:49;;;;;;;114.97;42.00;;;4.70;99.90;;;;;;6183391;23;20150;-47
2022/11/30 01:35:15;;;;;;;111.23;42.03;;;4.70;99.90;;;;;;6182669;23;20167;-46
2022/11/30 01:37:40;;;;;;;101.73;39.83;;;4.70;99.90;;;;;;6174929;23;20167;-46
2022/11/30 01:40:07;;;;;;;106.07;40.20;;;4.70;99.90;;;;;;6183237;23;20206;-46
2022/11/30 01:42:33;;;;;;;111.40;41.37;;;4.70;99.90;;;;;;6183414;23;20198;-46
2022/11/30 01:45:01;;;;;;;109.70;40.90;;;4.70;99.90;;;;;;6181340;23;20398;-46
2022/11/30 01:47:36;;;;;;;112.00;40.87;;;4.70;99.90;;;;;;6183388;23;20175;-47
2022/11/30 01:50:16;;;;;;;111.30;41.50;;;4.60;99.90;;;;;;6182555;23;21123;-47
2022/11/30 01:52:49;;;;;;;118.40;41.33;;;4.60;99.90;;;;;;6182764;23;20720;-48
2022/11/30 01:55:25;;;;;;;116.03;42.20;;;4.60;99.90;;;;;;6176616;23;20679;-47
2022/11/30 01:58:00;;;;;;;115.17;40.93;;;4.70;99.90;;;;;;6183016;23;20406;-46
2022/11/30 02:00:26;;;;;;;126.70;43.30;;;4.60;99.90;;;;;;6182661;23;20387;-43
2022/11/30 02:03:27;;;;;;;112.50;42.90;;;4.60;99.90;;;;;;6183078;23;20375;-47
2022/11/30 02:05:53;;;;;;;108.40;40.57;;;4.60;99.90;;;;;;6132842;23;20197;-47
2022/11/30 02:08:19;;;;;;;120.00;42.57;;;4.60;99.90;;;;;;6183279;23;20378;-46
2022/11/30 02:10:51;;;;;;;126.03;43.60;;;4.60;99.90;;;;;;6182579;23;20375;-46
2022/11/30 02:13:35;;;;;;;105.80;41.90;;;4.60;99.90;;;;;;6182377;23;20390;-46
2022/11/30 02:16:18;;;;;;;125.87;43.37;;;4.60;99.90;;;;;;6183136;23;20362;-47
2022/11/30 02:19:19;;;;;;;124.53;43.23;;;4.60;99.90;;;;;;6183425;23;21160;-47
2022/11/30 02:21:52;;;;;;;134.93;44.40;;;4.60;99.90;;;;;;6183148;23;20949;-47
2022/11/30 02:24:34;;;;;;;122.60;42.80;;;4.60;99.90;;;;;;6182870;23;20367;-47
2022/11/30 02:27:31;;;;;;;122.03;42.93;;;4.60;99.90;;;;;;6182573;23;20426;-46
2022/11/30 02:30:10;;;;;;;119.33;43.67;;;4.60;99.90;;;;;;6182906;23;20374;-47
2022/11/30 02:32:53;;;;;;;124.53;45.20;;;4.60;99.90;;;;;;6183094;23;20457;-47
2022/11/30 02:35:23;;;;;;;139.60;45.53;;;4.60;99.90;;;;;;6182151;23;20853;-47
2022/11/30 02:37:52;;;;;;;115.07;43.20;;;4.60;99.90;;;;;;6175910;23;20496;-47
2022/11/30 02:40:19;;;;;;;118.83;44.17;;;4.60;99.90;;;;;;6180291;23;20453;-46
2022/11/30 02:42:46;;;;;;;120.30;44.80;;;4.70;99.90;;;;;;6184512;23;20374;-46
2022/11/30 02:45:12;;;;;;;111.60;41.10;;;4.70;99.90;;;;;;6184123;23;20378;-47
2022/11/30 02:47:47;;;;;;;112.43;42.87;;;4.70;99.90;;;;;;6184373;23;20397;-46
2022/11/30 02:50:38;;;;;;;126.33;45.07;;;4.70;99.90;;;;;;6184791;23;20246;-46
2022/11/30 02:53:03;;;;;;;119.67;44.90;;;4.70;99.90;;;;;;6183985;23;20371;-46
2022/11/30 02:55:30;;;;;;;124.70;42.87;;;4.60;99.90;;;;;;6181207;23;21093;-46
2022/11/30 02:57:56;;;;;;;115.07;42.80;;;4.60;99.90;;;;;;6181298;23;20154;-47
2022/11/30 03:00:22;;;;;;;111.10;43.40;;;4.60;99.90;;;;;;6184270;23;20366;-47
2022/11/30 03:02:47;;;;;;;117.70;43.80;;;4.60;99.90;;;;;;6184550;23;20162;-47
2022/11/30 03:05:13;;;;;;;112.27;43.77;;;4.60;99.90;;;;;;6184429;23;20179;-47
2022/11/30 03:07:38;;;;;;;118.47;43.70;;;4.60;99.90;;;;;;6180348;23;20139;-44
2022/11/30 03:10:05;;;;;;;119.13;44.70;;;4.70;99.90;;;;;;6179814;23;20237;-47
2022/11/30 03:12:31;;;;;;;121.53;46.73;;;4.60;99.90;;;;;;6181336;23;20549;-46
2022/11/30 03:14:57;;;;;;;118.50;43.17;;;4.70;99.90;;;;;;6183953;23;20375;-47
2022/11/30 03:17:22;;;;;;;129.87;44.30;;;4.60;99.90;;;;;;6184071;23;20152;-47
2022/11/30 03:19:48;;;;;;;116.77;43.10;;;4.70;99.90;;;;;;6183633;23;20242;-46
2022/11/30 03:22:13;;;;;;;118.17;42.63;;;4.70;99.90;;;;;;6183367;23;20147;-47
2022/11/30 03:24:39;;;;;;;118.53;44.00;;;4.70;99.90;;;;;;6184222;23;20182;-47
2022/11/30 03:27:05;;;;;;;129.53;43.93;;;4.60;99.90;;;;;;6183339;23;20190;-47
2022/11/30 03:29:30;;;;;;;128.20;43.37;;;4.70;99.90;;;;;;6183801;23;20228;-45
2022/11/30 03:31:56;;;;;;;125.87;44.77;;;4.70;99.90;;;;;;6183556;23;20140;-47
2022/11/30 03:34:25;;;;;;;131.23;45.50;;;4.70;99.90;;;;;;6183276;23;20578;-50
2022/11/30 03:36:51;;;;;;;126.10;43.73;;;4.60;99.90;;;;;;6177132;23;20169;-46
2022/11/30 03:39:16;;;;;;;124.73;43.47;;;4.60;99.90;;;;;;6183403;23;20524;-47
2022/11/30 03:41:42;;;;;;;113.10;42.67;;;4.70;99.90;;;;;;6183998;23;20171;-48
2022/11/30 03:44:07;;;;;;;120.87;43.90;;;4.70;99.90;;;;;;6183665;23;20155;-47
2022/11/30 03:46:33;;;;;;;118.70;43.33;;;4.70;99.90;;;;;;6183499;23;20177;-47
2022/11/30 03:48:58;;;;;;;123.33;45.37;;;4.70;99.90;;;;;;6183845;23;20925;-46
2022/11/30 03:51:24;;;;;;;122.63;44.70;;;4.70;99.90;;;;;;6183624;23;20278;-47
2022/11/30 03:53:50;;;;;;;117.57;44.47;;;4.70;99.90;;;;;;6176963;23;20578;-46
2022/11/30 03:56:15;;;;;;;123.00;45.57;;;4.70;99.90;;;;;;6183742;23;20535;-47
2022/11/30 03:58:41;;;;;;;120.97;45.50;;;4.70;99.90;;;;;;6182732;23;20210;-47
2022/11/30 04:01:08;;;;;;;125.97;45.17;;;4.70;99.90;;;;;;6183449;23;20162;-44
2022/11/30 04:03:34;;;;;;;144.40;49.50;;;4.70;99.90;;;;;;6183465;23;20426;-46
2022/11/30 04:06:01;;;;;;;137.37;47.50;;;4.70;99.90;;;;;;6182475;23;20493;-47
2022/11/30 04:08:27;;;;;;;124.60;44.17;;;4.70;99.90;;;;;;6183697;23;20375;-47
2022/11/30 04:10:55;;;;;;;132.97;46.33;;;4.60;99.90;;;;;;6174972;23;20441;-47
2022/11/30 04:13:21;;;;;;;132.10;45.47;;;4.70;99.90;;;;;;6183150;23;20378;-47
2022/11/30 04:15:48;;;;;;;127.00;44.27;;;4.70;99.90;;;;;;6182637;23;20402;-46
2022/11/30 04:18:14;;;;;;;132.40;45.40;;;4.70;99.90;;;;;;6182643;23;20386;-47
2022/11/30 04:20:41;;;;;;;132.43;45.90;;;4.70;99.90;;;;;;6183240;23;20414;-47
2022/11/30 04:23:07;;;;;;;126.97;43.57;;;4.70;99.90;;;;;;6183236;23;20387;-46
2022/11/30 04:25:33;;;;;;;127.53;42.87;;;4.70;99.90;;;;;;6182778;23;20421;-47
2022/11/30 04:27:58;;;;;;;131.37;44.50;;;4.70;99.90;;;;;;6183207;23;20394;-46
2022/11/30 04:30:24;;;;;;;130.73;42.77;;;4.70;99.90;;;;;;6182749;23;20135;-47
2022/11/30 04:32:49;;;;;;;147.03;44.93;;;4.70;99.90;;;;;;6183232;23;20163;-46
2022/11/30 04:35:15;;;;;;;133.27;42.47;;;4.70;99.90;;;;;;6183449;23;20151;-47
2022/11/30 04:37:40;;;;;;;126.60;44.27;;;4.70;99.90;;;;;;6183276;23;20159;-47
2022/11/30 04:40:07;;;;;;;123.40;43.77;;;4.70;99.90;;;;;;6183105;23;20633;-47
2022/11/30 04:42:32;;;;;;;130.07;43.83;;;4.70;99.90;;;;;;6183002;23;20148;-46
2022/11/30 04:44:58;;;;;;;144.83;44.53;;;4.70;99.90;;;;;;6182841;23;20385;-47
2022/11/30 04:47:24;;;;;;;120.80;44.47;;;4.70;99.90;;;;;;6184171;23;20201;-47
2022/11/30 04:49:49;;;;;;;126.97;44.57;;;4.70;99.90;;;;;;6183190;23;20162;-61
2022/11/30 04:52:15;;;;;;;138.23;45.10;;;4.60;99.90;;;;;;6182798;23;20166;-46
2022/11/30 04:54:40;;;;;;;126.10;42.70;;;4.70;99.90;;;;;;6183024;23;20226;-47
2022/11/30 04:57:06;;;;;;;125.87;41.53;;;4.60;99.90;;;;;;6183376;23;20151;-47
2022/11/30 04:59:32;;;;;;;144.47;46.67;;;4.60;99.90;;;;;;6183665;23;20155;-44
2022/11/30 05:01:57;;;;;;;140.20;45.60;;;4.60;99.90;;;;;;6183781;23;20151;-47
2022/11/30 05:04:23;;;;;;;159.83;46.57;;;4.60;99.90;;;;;;6182902;23;20173;-47
2022/11/30 05:06:49;;;;;;;147.93;45.87;;;4.60;99.90;;;;;;6182964;23;20667;-47
2022/11/30 05:09:14;;;;;;;147.07;45.97;;;4.60;99.90;;;;;;6181867;23;20170;-47
2022/11/30 05:11:40;;;;;;;138.67;45.30;;;4.60;99.90;;;;;;6182787;23;20139;-47
2022/11/30 05:14:05;;;;;;;124.20;42.77;;;4.70;99.90;;;;;;6183119;23;20154;-46
2022/11/30 05:16:31;;;;;;;148.20;43.87;;;4.70;99.90;;;;;;6182920;23;20801;-46
2022/11/30 05:18:56;;;;;;;149.83;47.70;;;4.70;99.90;;;;;;6183182;23;20269;-48
2022/11/30 05:21:22;;;;;;;129.90;43.30;;;4.60;99.90;;;;;;6182766;23;20642;-46
2022/11/30 05:23:48;;;;;;;147.77;45.80;;;4.60;99.90;;;;;;6183208;23;20471;-47
2022/11/30 05:26:16;;;;;;;140.33;45.50;;;4.60;99.90;;;;;;6182184;23;20230;-47
2022/11/30 05:28:41;;;;;;;139.57;42.30;;;4.60;99.90;;;;;;6182508;23;20154;-48
2022/11/30 05:31:07;;;;;;;140.57;44.77;;;4.60;99.90;;;;;;6183138;23;20410;-47
2022/11/30 05:33:33;;;;;;;135.13;45.20;;;4.70;99.90;;;;;;6182872;23;20143;-46
2022/11/30 05:35:58;;;;;;;137.30;44.27;;;4.60;99.90;;;;;;6182899;23;20153;-47
2022/11/30 05:38:24;;;;;;;136.53;42.40;;;4.70;99.90;;;;;;6177283;23;20225;-47
2022/11/30 05:40:49;;;;;;;146.40;45.43;;;4.70;99.90;;;;;;6182692;23;20155;-47
2022/11/30 05:43:15;;;;;;;137.37;45.10;;;4.60;99.90;;;;;;6183325;23;20218;-46
2022/11/30 05:45:41;;;;;;;162.70;47.80;;;4.60;99.90;;;;;;6183112;23;20264;-46
2022/11/30 05:48:07;;;;;;;163.57;48.37;;;4.60;99.90;;;;;;6183016;23;20374;-47
2022/11/30 05:50:32;;;;;;;154.67;46.67;;;4.60;99.90;;;;;;6183154;23;20159;-47
2022/11/30 05:52:59;;;;;;;155.77;45.00;;;4.60;99.90;;;;;;6182852;23;20179;-47
2022/11/30 05:55:26;;;;;;;157.03;44.37;;;4.60;99.90;;;;;;6182719;23;20155;-47
2022/11/30 05:57:52;;;;;;;152.80;47.37;;;4.60;99.90;;;;;;6182688;23;20833;-46
2022/11/30 06:00:19;;;;;;;135.13;44.37;;;4.60;99.90;;;;;;6183001;23;20367;-47
2022/11/30 06:02:45;;;;;;;152.23;45.00;;;4.60;99.90;;;;;;6183351;23;20410;-47
2022/11/30 06:05:12;;;;;;;158.97;46.87;;;4.60;99.90;;;;;;6182432;23;20371;-47
2022/11/30 06:07:38;;;;;;;166.10;44.00;;;4.60;99.90;;;;;;6182625;23;20147;-47
2022/11/30 06:10:05;;;;;;;155.27;46.73;;;4.60;99.90;;;;;;6182518;23;20382;-47
2022/11/30 06:12:31;;;;;;;132.90;43.60;;;4.60;99.90;;;;;;6183105;23;20457;-47
2022/11/30 06:14:56;;;;;;;143.07;45.20;;;4.60;99.90;;;;;;6182957;23;20398;-47
2022/11/30 06:17:22;;;;;;;169.37;45.30;;;4.60;99.90;;;;;;6184145;23;20442;-47
2022/11/30 06:19:47;;;;;;;165.43;46.47;;;4.60;99.90;;;;;;6184717;23;20171;-47
2022/11/30 06:22:13;;;;;;;143.37;43.77;;;4.60;99.90;;;;;;6184776;23;20600;-47
2022/11/30 06:24:39;;;;;;;151.70;46.07;;;4.60;99.90;;;;;;6184656;23;20573;-46
2022/11/30 06:27:04;;;;;;;157.73;45.10;;;4.70;99.90;;;;;;6184605;23;20187;-47
2022/11/30 06:29:30;;;;;;;157.70;45.73;;;4.70;99.90;;;;;;6184683;23;20147;-46
2022/11/30 06:31:55;;;;;;;137.83;43.57;;;4.70;99.90;;;;;;6184151;23;20151;-47
2022/11/30 06:34:21;;;;;;;160.37;44.20;;;4.60;99.90;;;;;;6184394;23;20159;-47
2022/11/30 06:36:46;;;;;;;145.60;41.47;;;4.70;99.90;;;;;;6184606;23;20477;-44
2022/11/30 06:39:12;;;;;;;146.63;43.97;;;4.60;99.90;;;;;;6184329;23;20273;-46
2022/11/30 06:41:38;;;;;;;162.57;45.67;;;4.60;99.90;;;;;;6185069;23;20155;-47
2022/11/30 06:44:08;;;;;;;149.97;45.80;;;4.60;99.90;;;;;;6184643;23;20154;-47
2022/11/30 06:46:34;;;;;;;149.93;44.90;;;4.60;99.90;;;;;;6183309;23;20179;-47
2022/11/30 06:48:59;;;;;;;154.47;44.67;;;4.60;99.90;;;;;;6184848;23;20402;-47
2022/11/30 06:51:25;;;;;;;156.13;46.50;;;4.60;99.90;;;;;;6184919;23;20169;-47
2022/11/30 06:53:51;;;;;;;152.27;44.80;;;4.60;99.90;;;;;;6183513;23;20488;-46
2022/11/30 06:56:17;;;;;;;153.13;42.77;;;4.60;99.90;;;;;;6184593;23;20932;-50
2022/11/30 06:58:43;;;;;;;166.53;44.97;;;4.60;99.90;;;;;;6183812;23;20155;-47
2022/11/30 07:01:11;;;;;;;143.07;43.60;;;4.60;99.90;;;;;;6184088;23;20374;-47
2022/11/30 07:03:37;;;;;;;155.77;43.60;;;4.60;99.90;;;;;;6184565;23;20166;-47
2022/11/30 07:06:11;;;;;;;163.33;46.67;;;4.60;99.90;;;;;;6184436;23;20410;-47
2022/11/30 07:08:37;;;;;;;134.87;41.57;;;4.50;99.90;;;;;;6184196;23;20554;-47
2022/11/30 07:11:03;;;;;;;160.00;44.77;;;4.60;99.90;;;;;;6177908;23;20397;-46
2022/11/30 07:13:29;;;;;;;150.43;45.30;;;4.60;99.90;;;;;;6184183;23;20367;-47
2022/11/30 07:15:55;;;;;;;155.40;44.40;;;4.60;99.90;;;;;;6183985;23;20884;-47
2022/11/30 07:18:21;;;;;;;157.07;44.67;;;4.70;99.90;;;;;;6184605;23;20703;-47
2022/11/30 07:20:46;;;;;;;159.83;43.50;;;4.60;99.90;;;;;;6184907;23;20374;-46
2022/11/30 07:26:06;;;;;;;145.67;45.73;;;4.60;99.90;;;;;;6183836;23;20648;-46
2022/11/30 07:28:37;;;;;;;164.90;45.50;;;4.60;99.90;;;;;;6183905;23;20374;-47
2022/11/30 07:31:35;;;;;;;148.10;44.50;;;4.60;99.90;;;;;;6184392;23;20378;-47
2022/11/30 07:34:06;;;;;;;132.00;41.77;;;4.60;99.90;;;;;;6167020;23;20444;-47
2022/11/30 07:36:33;;;;;;;161.47;44.47;;;4.60;99.90;;;;;;6184739;23;20390;-46
2022/11/30 07:38:59;;;;;;;134.53;41.20;;;4.60;99.90;;;;;;6182666;23;20462;-47
2022/11/30 07:41:25;;;;;;;145.67;42.70;;;4.60;99.90;;;;;;6183175;23;20379;-46
2022/11/30 07:43:51;;;;;;;142.43;43.20;;;4.70;99.90;;;;;;6183423;23;20159;-46
2022/11/30 07:46:17;;;;;;;117.97;40.83;;;4.70;99.90;;;;;;6183854;23;20501;-47
2022/11/30 07:48:44;;;;;;;143.43;43.50;;;4.70;99.90;;;;;;6183711;23;20156;-46
2022/11/30 07:51:16;;;;;;;135.27;42.07;;;4.60;99.90;;;;;;6183886;23;20908;-46
2022/11/30 07:53:42;;;;;;;139.57;44.10;;;4.60;99.90;;;;;;6181989;23;20395;-46
2022/11/30 07:56:11;;;;;;;132.43;42.20;;;4.60;99.90;;;;;;6184463;23;20428;-45
2022/11/30 07:58:36;;;;;;;128.90;42.77;;;4.60;99.90;;;;;;6184132;23;20390;-46
2022/11/30 08:01:05;;;;;;;125.60;42.40;;;4.70;99.90;;;;;;6184441;23;20379;-47
2022/11/30 08:03:32;;;;;;;129.23;40.90;;;4.70;99.90;;;;;;6183921;23;20691;-46
2022/11/30 08:06:06;;;;;;;105.27;38.93;;;4.70;99.90;;;;;;6182897;23;20472;-47
2022/11/30 08:08:34;;;;;;;130.80;41.97;;;4.70;99.90;;;;;;6184025;23;20371;-45
2022/11/30 08:11:00;;;;;;;114.73;40.73;;;4.60;99.90;;;;;;6182873;23;20703;-46
2022/11/30 08:13:26;;;;;;;103.97;39.20;;;4.70;99.90;;;;;;6183084;23;20645;-46
2022/11/30 08:15:52;;;;;;;112.60;38.87;;;4.70;99.90;;;;;;6184187;23;20370;-47
2022/11/30 08:18:18;;;;;;;117.57;39.83;;;4.70;99.90;;;;;;6183871;23;20711;-46
2022/11/30 08:20:44;;;;;;;107.40;38.43;;;4.80;99.90;;;;;;6184108;23;20144;-46
2022/11/30 08:23:10;;;;;;;111.50;37.67;;;4.70;99.90;;;;;;6184119;23;20836;-46
2022/11/30 08:25:36;;;;;;;108.87;37.90;;;4.80;99.90;;;;;;6183649;23;20422;-47
2022/11/30 08:28:03;;;;;;;118.70;40.77;;;4.80;99.90;;;;;;6183782;23;20358;-47
2022/11/30 08:30:28;;;;;;;113.00;38.63;;;4.80;99.90;;;;;;6183566;23;20426;-46
2022/11/30 08:32:55;;;;;;;106.07;38.30;;;4.80;99.90;;;;;;6183782;23;20386;-46
2022/11/30 08:35:20;;;;;;;103.50;36.60;;;4.80;99.90;;;;;;6183842;23;20884;-46
2022/11/30 08:37:46;;;;;;;111.60;37.30;;;4.80;99.90;;;;;;6183640;23;20394;-46
2022/11/30 08:40:12;;;;;;;98.93;36.37;;;4.80;99.90;;;;;;6183095;23;20202;-46
2022/11/30 08:42:37;;;;;;;104.97;35.33;;;4.90;99.90;;;;;;6183463;23;20163;-46
2022/11/30 08:45:03;;;;;;;99.53;37.70;;;4.80;99.90;;;;;;6183549;23;20154;-47
2022/11/30 08:47:29;;;;;;;97.43;35.53;;;4.90;99.90;;;;;;6181529;23;20245;-45
2022/11/30 08:49:56;;;;;;;100.40;35.90;;;4.80;99.90;;;;;;6183590;23;20387;-46
2022/11/30 08:52:22;;;;;;;94.83;35.50;;;4.90;99.90;;;;;;6183065;23;20178;-46
2022/11/30 08:54:47;;;;;;;96.40;37.10;;;4.90;99.90;;;;;;6183343;23;20705;-46
2022/11/30 08:57:15;;;;;;;101.07;36.80;;;4.90;99.90;;;;;;6177075;23;20149;-46
2022/11/30 08:59:41;;;;;;;113.43;37.53;;;4.90;99.90;;;;;;6183599;23;20532;-46
2022/11/30 09:02:10;;;;;;;92.17;35.17;;;4.90;99.90;;;;;;6182757;23;20363;-46
2022/11/30 09:04:35;;;;;;;90.13;36.10;;;4.90;99.90;;;;;;6183086;23;20139;-46
2022/11/30 09:07:01;;;;;;;108.37;39.13;;;4.90;99.90;;;;;;6182558;23;20484;-46
2022/11/30 09:09:27;;;;;;;94.20;34.97;;;5.00;99.90;;;;;;6181510;23;20163;-45
2022/11/30 09:11:53;;;;;;;98.10;36.50;;;5.00;99.90;;;;;;6183136;23;20159;-46
2022/11/30 09:14:18;;;;;;;100.57;38.30;;;5.00;99.90;;;;;;6179487;23;20843;-47
2022/11/30 09:16:44;;;;;;;83.30;33.40;;;5.10;99.90;;;;;;6180287;23;20166;-46
2022/11/30 09:19:09;;;;;;;85.53;32.60;;;5.10;99.90;;;;;;6182531;23;20147;-46
2022/11/30 09:21:35;;;;;;;97.43;35.33;;;5.10;99.90;;;;;;6182752;23;20225;-45
2022/11/30 09:24:01;;;;;;;87.83;34.67;;;5.00;99.90;;;;;;6182288;23;20143;-45
2022/11/30 09:26:26;;;;;;;84.03;33.43;;;5.00;99.90;;;;;;6183426;23;20237;-46
2022/11/30 09:28:53;;;;;;;83.90;33.20;;;5.00;99.90;;;;;;6183565;23;20151;-46
2022/11/30 09:31:21;;;;;;;88.83;33.87;;;5.00;99.90;;;;;;6182989;23;20743;-46
2022/11/30 09:33:47;;;;;;;85.70;34.77;;;5.00;99.90;;;;;;6183893;23;20369;-46
2022/11/30 09:36:16;;;;;;;90.03;34.40;;;5.00;99.90;;;;;;6183661;23;20370;-47
2022/11/30 09:38:42;;;;;;;73.23;32.30;;;5.00;99.90;;;;;;6183410;23;20434;-46
2022/11/30 09:41:32;;;;;;;87.70;32.90;;;5.10;99.90;;;;;;6183628;23;20481;-46
2022/11/30 09:43:57;;;;;;;73.70;32.07;;;5.10;99.90;;;;;;6183441;23;21023;-47
2022/11/30 09:46:29;;;;;;;79.87;32.20;;;5.10;99.90;;;;;;6183207;23;20446;-45
2022/11/30 09:49:14;;;;;;;71.30;31.60;;;5.10;99.90;;;;;;6183282;23;20566;-46
2022/11/30 09:51:48;;;;;;;76.27;31.10;;;5.10;99.90;;;;;;6183632;23;20428;-46
2022/11/30 09:54:18;;;;;;;82.70;32.80;;;5.10;99.90;;;;;;6183150;23;20359;-46
2022/11/30 09:56:45;;;;;;;74.90;30.27;;;5.10;99.90;;;;;;6183310;23;20780;-46
2022/11/30 09:59:24;;;;;;;77.37;32.67;;;5.20;99.90;;;;;;6183377;23;20370;-46
2022/11/30 10:01:50;;;;;;;68.17;31.90;;;5.20;98.70;;;;;;6182695;23;20904;-46
2022/11/30 10:04:27;;;;;;;74.60;31.00;;;5.10;86.70;;;;;;6183029;23;20406;-47
2022/11/30 10:07:05;;;;;;;78.13;31.50;;;5.10;80.40;;;;;;6182764;23;20214;-46
2022/11/30 10:10:03;;;;;;;62.10;29.43;;;5.20;78.70;;;;;;6183261;23;20374;-45
2022/11/30 10:12:41;;;;;;;66.77;30.93;;;5.10;42.30;;;;;;6140567;23;20398;-45
2022/11/30 10:15:12;;;;;;;66.60;30.60;;;5.10;45.50;;;;;;6182982;23;20382;-46
2022/11/30 10:17:54;;;;;;;72.17;29.57;;;5.10;45.50;;;;;;6182771;23;20382;-46
2022/11/30 10:20:50;;;;;;;67.53;29.97;;;5.10;44.30;;;;;;6183020;23;20371;-46
2022/11/30 10:23:47;;;;;;;81.73;32.40;;;5.10;47.30;;;;;;6137118;23;20482;-46
2022/11/30 10:26:26;;;;;;;74.30;30.80;;;5.10;53.20;;;;;;6181944;23;20441;-45
2022/11/30 10:28:54;;;;;;;62.90;29.43;;;5.10;34.00;;;;;;6183047;23;20378;-46
2022/11/30 10:31:32;;;;;;;68.67;28.63;;;5.20;31.80;;;;;;6182701;23;20952;-46
2022/11/30 10:34:10;;;;;;;52.20;27.50;;;5.20;25.40;;;;;;6182707;23;20491;-46
2022/11/30 10:36:40;;;;;;;63.67;27.83;;;5.10;8.50;;;;;;6183252;23;20424;-46
2022/11/30 10:39:19;;;;;;;56.60;28.63;;;5.10;1.00;;;;;;6182943;23;20448;-45
2022/11/30 10:41:55;;;;;;;62.13;29.37;;;5.10;16.80;;;;;;6183010;23;20378;-46
2022/11/30 10:44:34;;;;;;;57.87;28.50;;;5.10;23.40;;;;;;6182696;23;20405;-46
2022/11/30 10:47:09;;;;;;;86.63;40.17;;;5.20;11.70;;;;;;6176187;23;20414;-46
2022/11/30 10:49:37;;;;;;;67.20;29.97;;;5.20;1.00;;;;;;6182204;23;20377;-46
2022/11/30 10:52:06;;;;;;;60.83;28.83;;;5.20;1.00;;;;;;6181843;23;20394;-47
2022/11/30 10:54:34;;;;;;;65.53;30.30;;;5.20;1.00;;;;;;6182526;23;20449;-46
2022/11/30 10:57:02;;;;;;;63.83;31.00;;;5.10;1.00;;;;;;6182420;23;20860;-46
2022/11/30 10:59:51;;;;;;;61.73;28.57;;;5.20;1.00;;;;;;6179635;23;20386;-46
2022/11/30 11:02:34;;;;;;;66.80;30.00;;;5.10;1.00;;;;;;6183091;23;20371;-46
2022/11/30 11:05:22;;;;;;;63.80;28.93;;;5.10;14.50;;;;;;6183970;23;20472;-47
2022/11/30 11:07:54;;;;;;;63.23;29.00;;;5.20;23.40;;;;;;6184066;23;20397;-47
2022/11/30 11:10:24;;;;;;;65.03;29.80;;;5.20;21.90;;;;;;6184452;23;20374;-46
2022/11/30 11:12:52;;;;;;;66.67;29.90;;;5.10;21.30;;;;;;6184841;23;21219;-47
2022/11/30 11:15:27;;;;;;;64.10;29.83;;;5.20;31.80;;;;;;6183674;23;20382;-47
2022/11/30 11:18:10;;;;;;;61.70;29.47;;;5.20;26.80;;;;;;6183815;23;20370;-46
2022/11/30 11:20:41;;;;;;;64.63;28.50;;;5.20;27.00;;;;;;6206829;23;20375;-46
2022/11/30 11:23:31;;;;;;;59.23;29.27;;;5.20;23.40;;;;;;6184528;23;20446;-47
2022/11/30 11:25:57;;;;;;;59.20;28.63;;;5.20;23.50;;;;;;6183804;23;20441;-45
2022/11/30 11:28:24;;;;;;;53.17;26.97;;;5.20;13.20;;;;;;6184616;23;20379;-46
2022/11/30 11:30:54;;;;;;;63.57;28.83;;;5.20;6.30;;;;;;6184730;23;20651;-47
2022/11/30 11:33:28;;;;;;;67.60;29.90;;;5.20;1.00;;;;;;6184657;23;20374;-46
2022/11/30 11:36:06;;;;;;;62.80;30.37;;;5.20;1.00;;;;;;6183425;23;20420;-45
2022/11/30 11:38:47;;;;;;;73.33;31.40;;;5.30;1.00;;;;;;6184275;23;20398;-45
2022/11/30 11:41:26;;;;;;;63.57;29.80;;;5.30;1.00;;;;;;6184336;23;20421;-46
2022/11/30 11:44:08;;;;;;;65.10;30.77;;;5.30;21.50;;;;;;6183058;23;20367;-44
2022/11/30 11:46:37;;;;;;;61.73;28.80;;;5.30;22.40;;;;;;6183926;23;20411;-44
2022/11/30 11:49:21;;;;;;;61.50;27.70;;;5.30;1.00;;;;;;6182757;23;20450;-44
2022/11/30 11:51:57;;;;;;;65.23;28.90;;;5.30;1.00;;;;;;6183853;23;20399;-44
2022/11/30 11:54:40;;;;;;;57.17;26.77;;;5.30;1.00;;;;;;6184363;23;20351;-43
2022/11/30 11:57:12;;;;;;;57.97;27.10;;;5.20;1.00;;;;;;6183537;23;20828;-44
2022/11/30 11:59:57;;;;;;;63.33;29.27;;;5.20;1.00;;;;;;6182070;23;20379;-44
2022/11/30 12:02:47;;;;;;;58.67;28.20;;;5.20;1.00;;;;;;6183424;23;20366;-45
2022/11/30 12:05:29;;;;;;;69.80;30.20;;;5.20;1.00;;;;;;6184008;23;20374;-45
2022/11/30 12:08:19;;;;;;;65.73;29.73;;;5.20;1.00;;;;;;6183991;23;20375;-45
2022/11/30 12:11:00;;;;;;;68.97;29.70;;;5.20;1.00;;;;;;6184079;23;20387;-44
2022/11/30 12:13:36;;;;;;;64.90;29.77;;;5.20;1.00;;;;;;6183307;23;20818;-44
2022/11/30 12:16:10;;;;;;;62.03;29.23;;;5.20;1.00;;;;;;6183943;23;20449;-44
2022/11/30 12:19:04;;;;;;;63.23;29.13;;;5.20;12.70;;;;;;6184301;23;20375;-51
2022/11/30 12:21:58;;;;;;;61.20;27.37;;;5.20;34.30;;;;;;6180587;23;20363;-45
2022/11/30 12:24:39;;;;;;;58.90;26.43;;;5.20;39.00;;;;;;6182443;23;21018;-45
2022/11/30 12:27:25;;;;;;;50.20;25.37;;;5.20;40.60;;;;;;6183966;23;20505;-44
2022/11/30 12:30:21;;;;;;;54.77;27.20;;;5.20;30.90;;;;;;6137523;23;20699;-45
2022/11/30 12:33:01;;;;;;;54.63;25.57;;;5.20;21.40;;;;;;6182154;23;20837;-45
2022/11/30 12:35:38;;;;;;;57.87;26.23;;;5.20;19.00;;;;;;6184309;23;20426;-45
2022/11/30 12:38:30;;;;;;;51.80;25.83;;;5.20;30.50;;;;;;6183559;23;20401;-45
2022/11/30 12:41:14;;;;;;;54.37;26.43;;;5.20;23.50;;;;;;6148747;23;20414;-45
2022/11/30 12:43:59;;;;;;;50.27;24.00;;;5.20;3.20;;;;;;6183395;23;20363;-44
2022/11/30 12:46:37;;;;;;;58.20;25.73;;;5.20;1.00;;;;;;6182294;23;20413;-45